createdAt,value
2018-02-02T00:00:33.947Z,22.9
2018-02-02T00:01:33.958Z,23
2018-02-02T00:02:33.840Z,22.9
2018-02-02T00:03:33.633Z,23
2018-02-02T00:04:33.894Z,23.1
2018-02-02T00:05:33.463Z,23.1
2018-02-02T00:06:33.449Z,23.1
2018-02-02T00:07:33.342Z,23.1
2018-02-02T00:08:33.260Z,23.1
2018-02-02T00:09:33.218Z,23.1
2018-02-02T00:10:33.165Z,23.1
2018-02-02T00:11:33.027Z,23.1
2018-02-02T00:12:32.948Z,22.9
2018-02-02T00:13:32.871Z,22.9
2018-02-02T00:14:32.823Z,23
2018-02-02T00:15:32.776Z,23
2018-02-02T00:16:32.683Z,22.9
2018-02-02T00:17:32.718Z,22.8
2018-02-02T00:18:32.514Z,22.7
2018-02-02T00:19:32.410Z,22.6
2018-02-02T00:20:32.382Z,22.6
2018-02-02T00:21:32.246Z,22.6
2018-02-02T00:22:32.166Z,22.6
2018-02-02T00:23:32.198Z,22.6
2018-02-02T00:24:32.118Z,22.7
2018-02-02T00:25:31.900Z,22.8
2018-02-02T00:26:32.000Z,22.9
2018-02-02T00:27:31.779Z,23
2018-02-02T00:28:31.984Z,23
2018-02-02T00:29:31.904Z,22.9
2018-02-02T00:30:31.600Z,23.1
2018-02-02T00:31:31.496Z,23.1
2018-02-02T00:32:31.385Z,23.2
2018-02-02T00:33:31.414Z,23.1
2018-02-02T00:34:31.339Z,23.1
2018-02-02T00:35:31.235Z,23.1
2018-02-02T00:36:31.233Z,23.1
2018-02-02T00:37:31.051Z,23.1
2018-02-02T00:38:30.946Z,22.9
2018-02-02T00:39:30.945Z,22.9
2018-02-02T00:40:30.912Z,22.9
2018-02-02T00:41:30.680Z,22.9
2018-02-02T00:42:30.885Z,22.9
2018-02-02T00:43:30.619Z,22.8
2018-02-02T00:44:30.555Z,22.7
2018-02-02T00:45:30.472Z,22.8
2018-02-02T00:46:30.347Z,22.8
2018-02-02T00:47:30.530Z,22.8
2018-02-02T00:48:30.099Z,22.7
2018-02-02T00:49:30.200Z,22.6
2018-02-02T00:50:29.976Z,22.6
2018-02-02T00:51:29.901Z,22.6
2018-02-02T00:52:29.930Z,22.5
2018-02-02T00:53:29.772Z,22.5
2018-02-02T00:54:29.630Z,22.5
2018-02-02T00:55:29.616Z,22.5
2018-02-02T00:56:29.473Z,22.6
2018-02-02T00:57:29.423Z,22.7
2018-02-02T00:58:29.403Z,22.8
2018-02-02T00:59:29.264Z,22.9
2018-02-02T01:00:29.189Z,22.9
2018-02-02T01:01:29.116Z,22.9
2018-02-02T01:02:29.031Z,22.9
2018-02-02T01:03:29.064Z,23
2018-02-02T01:04:28.909Z,23.1
2018-02-02T01:05:28.768Z,23
2018-02-02T01:06:29.011Z,22.9
2018-02-02T01:07:28.621Z,23
2018-02-02T01:08:28.595Z,23
2018-02-02T01:09:28.543Z,23
2018-02-02T01:10:28.555Z,22.9
2018-02-02T01:11:28.331Z,22.8
2018-02-02T01:12:28.250Z,22.8
2018-02-02T01:13:28.424Z,22.9
2018-02-02T01:14:28.414Z,22.9
2018-02-02T01:15:28.018Z,22.8
2018-02-02T01:16:27.937Z,22.7
2018-02-02T01:17:27.861Z,22.6
2018-02-02T01:18:27.841Z,22.6
2018-02-02T01:19:27.734Z,22.5
2018-02-02T01:20:27.658Z,22.6
2018-02-02T01:21:27.605Z,22.6
2018-02-02T01:22:27.467Z,22.6
2018-02-02T01:23:27.389Z,22.7
2018-02-02T01:24:27.422Z,22.8
2018-02-02T01:25:27.265Z,22.9
2018-02-02T01:26:27.123Z,22.9
2018-02-02T01:27:27.074Z,22.9
2018-02-02T01:28:27.001Z,23
2018-02-02T01:29:26.958Z,23.1
2018-02-02T01:30:26.900Z,23.1
2018-02-02T01:31:26.762Z,23.1
2018-02-02T01:32:26.682Z,23.1
2018-02-02T01:33:26.615Z,23.1
2018-02-02T01:34:26.527Z,23.1
2018-02-02T01:35:26.452Z,23.1
2018-02-02T01:36:26.518Z,23
2018-02-02T01:37:26.261Z,22.9
2018-02-02T01:38:26.250Z,22.9
2018-02-02T01:39:26.268Z,22.9
2018-02-02T01:40:26.059Z,22.9
2018-02-02T01:41:26.010Z,22.8
2018-02-02T01:42:25.870Z,22.7
2018-02-02T01:43:25.933Z,22.6
2018-02-02T01:44:25.746Z,22.5
2018-02-02T01:45:25.667Z,22.5
2018-02-02T01:46:25.745Z,22.5
2018-02-02T01:47:25.620Z,22.5
2018-02-02T01:48:25.493Z,22.6
2018-02-02T01:49:25.384Z,22.6
2018-02-02T01:50:25.382Z,22.7
2018-02-02T01:51:25.195Z,22.8
2018-02-02T01:52:25.120Z,22.9
2018-02-02T01:53:25.037Z,23
2018-02-02T01:54:24.929Z,23
2018-02-02T01:55:24.901Z,23
2018-02-02T01:56:24.804Z,23.1
2018-02-02T01:57:24.698Z,23.1
2018-02-02T01:58:24.794Z,23.2
2018-02-02T01:59:24.540Z,23.1
2018-02-02T02:00:24.523Z,23.1
2018-02-02T02:01:24.702Z,23.1
2018-02-02T02:02:24.332Z,23.1
2018-02-02T02:03:24.254Z,23.1
2018-02-02T02:04:24.210Z,22.9
2018-02-02T02:05:24.068Z,22.9
2018-02-02T02:06:24.173Z,22.9
2018-02-02T02:07:23.912Z,22.9
2018-02-02T02:08:23.862Z,22.9
2018-02-02T02:09:23.895Z,22.8
2018-02-02T02:10:23.741Z,22.8
2018-02-02T02:11:23.621Z,22.6
2018-02-02T02:12:23.551Z,22.6
2018-02-02T02:13:23.473Z,22.5
2018-02-02T02:14:23.394Z,22.6
2018-02-02T02:15:23.646Z,22.6
2018-02-02T02:16:23.298Z,22.6
2018-02-02T02:17:23.127Z,22.6
2018-02-02T02:18:23.231Z,22.7
2018-02-02T02:19:23.110Z,22.8
2018-02-02T02:20:22.932Z,22.9
2018-02-02T02:21:22.950Z,23
2018-02-02T02:22:22.742Z,23
2018-02-02T02:23:22.728Z,23
2018-02-02T02:24:22.631Z,23.1
2018-02-02T02:25:22.664Z,23.1
2018-02-02T02:26:22.458Z,23.1
2018-02-02T02:27:22.535Z,23.1
2018-02-02T02:28:22.383Z,23.1
2018-02-02T02:29:22.281Z,23.1
2018-02-02T02:30:22.321Z,23.1
2018-02-02T02:31:22.148Z,23
2018-02-02T02:32:22.184Z,22.9
2018-02-02T02:33:22.065Z,22.9
2018-02-02T02:34:22.086Z,22.9
2018-02-02T02:35:21.872Z,22.9
2018-02-02T02:36:22.061Z,22.8
2018-02-02T02:37:21.731Z,22.7
2018-02-02T02:38:21.720Z,22.6
2018-02-02T02:39:21.741Z,22.6
2018-02-02T02:40:21.528Z,22.5
2018-02-02T02:41:21.452Z,22.5
2018-02-02T02:42:21.398Z,22.5
2018-02-02T02:43:21.405Z,22.6
2018-02-02T02:44:21.281Z,22.6
2018-02-02T02:45:21.326Z,22.6
2018-02-02T02:46:21.077Z,22.7
2018-02-02T02:47:21.046Z,22.8
2018-02-02T02:48:21.081Z,22.9
2018-02-02T02:49:20.900Z,23
2018-02-02T02:50:20.836Z,22.9
2018-02-02T02:51:20.760Z,23.1
2018-02-02T02:52:20.695Z,23.1
2018-02-02T02:53:20.630Z,23.2
2018-02-02T02:54:20.706Z,23.1
2018-02-02T02:55:20.454Z,23
2018-02-02T02:56:20.741Z,23.1
2018-02-02T02:57:20.322Z,23.1
2018-02-02T02:58:20.282Z,23.1
2018-02-02T02:59:20.479Z,22.9
2018-02-02T03:00:20.173Z,22.9
2018-02-02T03:01:20.076Z,22.9
2018-02-02T03:02:20.002Z,22.9
2018-02-02T03:03:20.047Z,22.9
2018-02-02T03:04:19.867Z,22.8
2018-02-02T03:05:19.765Z,22.6
2018-02-02T03:06:19.878Z,22.6
2018-02-02T03:07:19.765Z,22.5
2018-02-02T03:08:19.650Z,22.4
2018-02-02T03:09:19.843Z,22.4
2018-02-02T03:10:19.423Z,22.4
2018-02-02T03:11:19.532Z,22.5
2018-02-02T03:12:19.425Z,22.5
2018-02-02T03:13:19.245Z,22.6
2018-02-02T03:14:19.466Z,22.6
2018-02-02T03:15:19.231Z,22.6
2018-02-02T03:16:19.344Z,22.8
2018-02-02T03:17:19.002Z,22.8
2018-02-02T03:18:18.869Z,22.9
2018-02-02T03:19:18.835Z,22.9
2018-02-02T03:20:18.766Z,22.9
2018-02-02T03:21:18.729Z,23.1
2018-02-02T03:22:18.594Z,23.1
2018-02-02T03:23:18.554Z,23.2
2018-02-02T03:24:18.594Z,23.1
2018-02-02T03:25:18.422Z,23
2018-02-02T03:26:18.382Z,23.1
2018-02-02T03:27:18.389Z,23.1
2018-02-02T03:28:18.359Z,23
2018-02-02T03:29:18.116Z,22.9
2018-02-02T03:30:18.073Z,22.8
2018-02-02T03:31:18.004Z,22.9
2018-02-02T03:32:17.986Z,22.9
2018-02-02T03:33:17.898Z,22.8
2018-02-02T03:34:17.767Z,22.7
2018-02-02T03:35:17.728Z,22.6
2018-02-02T03:36:17.946Z,22.5
2018-02-02T03:37:17.623Z,22.5
2018-02-02T03:38:17.580Z,22.4
2018-02-02T03:39:17.451Z,22.4
2018-02-02T03:40:17.384Z,22.5
2018-02-02T03:41:17.430Z,22.5
2018-02-02T03:42:17.306Z,22.6
2018-02-02T03:43:17.177Z,22.6
2018-02-02T03:44:17.078Z,22.8
2018-02-02T03:45:17.192Z,22.9
2018-02-02T03:46:17.220Z,22.9
2018-02-02T03:47:17.035Z,23
2018-02-02T03:48:16.831Z,23
2018-02-02T03:49:16.731Z,23.1
2018-02-02T03:50:16.840Z,23.2
2018-02-02T03:51:16.737Z,23.2
2018-02-02T03:52:16.554Z,23.1
2018-02-02T03:53:16.489Z,23.1
2018-02-02T03:54:16.717Z,23.1
2018-02-02T03:55:16.442Z,23.2
2018-02-02T03:56:16.641Z,23.1
2018-02-02T03:57:16.216Z,22.9
2018-02-02T03:58:16.172Z,22.9
2018-02-02T03:59:16.041Z,22.9
2018-02-02T04:00:16.150Z,22.9
2018-02-02T04:01:15.904Z,22.9
2018-02-02T04:02:15.970Z,22.8
2018-02-02T04:03:15.927Z,22.7
2018-02-02T04:04:15.785Z,22.6
2018-02-02T04:05:15.765Z,22.5
2018-02-02T04:06:15.698Z,22.5
2018-02-02T04:07:15.520Z,22.5
2018-02-02T04:08:15.453Z,22.5
2018-02-02T04:09:15.415Z,22.6
2018-02-02T04:10:15.282Z,22.6
2018-02-02T04:11:15.247Z,22.7
2018-02-02T04:12:15.186Z,22.8
2018-02-02T04:13:15.104Z,22.9
2018-02-02T04:14:15.037Z,22.9
2018-02-02T04:15:14.967Z,23
2018-02-02T04:16:14.868Z,23.1
2018-02-02T04:17:14.861Z,23.1
2018-02-02T04:18:14.763Z,23.1
2018-02-02T04:19:14.781Z,23
2018-02-02T04:20:14.704Z,23
2018-02-02T04:21:14.612Z,23.1
2018-02-02T04:22:14.518Z,23.1
2018-02-02T04:23:14.418Z,23
2018-02-02T04:24:14.345Z,22.9
2018-02-02T04:25:14.283Z,22.9
2018-02-02T04:26:14.320Z,22.9
2018-02-02T04:27:14.234Z,22.9
2018-02-02T04:28:14.041Z,22.8
2018-02-02T04:29:14.150Z,22.7
2018-02-02T04:30:14.044Z,22.6
2018-02-02T04:31:13.970Z,22.5
2018-02-02T04:32:13.765Z,22.4
2018-02-02T04:33:13.879Z,22.4
2018-02-02T04:34:13.658Z,22.4
2018-02-02T04:35:13.695Z,22.4
2018-02-02T04:36:13.625Z,22.5
2018-02-02T04:37:13.420Z,22.5
2018-02-02T04:38:13.413Z,22.5
2018-02-02T04:39:13.344Z,22.6
2018-02-02T04:40:13.300Z,22.6
2018-02-02T04:41:13.173Z,22.7
2018-02-02T04:42:13.213Z,22.8
2018-02-02T04:43:13.037Z,22.9
2018-02-02T04:44:13.004Z,22.9
2018-02-02T04:45:12.871Z,22.9
2018-02-02T04:46:12.827Z,23.1
2018-02-02T04:47:12.759Z,23.1
2018-02-02T04:48:12.837Z,23.2
2018-02-02T04:49:12.590Z,23
2018-02-02T04:50:12.586Z,22.9
2018-02-02T04:51:12.474Z,22.9
2018-02-02T04:52:12.415Z,23
2018-02-02T04:53:12.402Z,23
2018-02-02T04:54:12.359Z,22.9
2018-02-02T04:55:12.317Z,22.8
2018-02-02T04:56:12.137Z,22.8
2018-02-02T04:57:12.070Z,22.8
2018-02-02T04:58:12.004Z,22.8
2018-02-02T04:59:12.024Z,22.8
2018-02-02T05:00:11.972Z,22.6
2018-02-02T05:01:11.794Z,22.6
2018-02-02T05:02:11.692Z,22.6
2018-02-02T05:03:11.800Z,22.6
2018-02-02T05:04:11.554Z,22.5
2018-02-02T05:05:11.662Z,22.5
2018-02-02T05:06:11.451Z,22.6
2018-02-02T05:07:11.482Z,22.6
2018-02-02T05:08:11.419Z,22.6
2018-02-02T05:09:11.386Z,22.8
2018-02-02T05:10:11.231Z,22.8
2018-02-02T05:11:11.249Z,22.9
2018-02-02T05:12:11.002Z,22.9
2018-02-02T05:13:10.961Z,22.9
2018-02-02T05:14:11.058Z,23
2018-02-02T05:15:10.822Z,23
2018-02-02T05:16:10.863Z,23.1
2018-02-02T05:17:10.994Z,23
2018-02-02T05:18:10.723Z,22.9
2018-02-02T05:19:10.663Z,22.9
2018-02-02T05:20:10.813Z,23
2018-02-02T05:21:10.475Z,23
2018-02-02T05:22:10.493Z,22.9
2018-02-02T05:23:10.262Z,22.8
2018-02-02T05:24:10.319Z,22.8
2018-02-02T05:25:10.135Z,22.9
2018-02-02T05:26:10.068Z,22.8
2018-02-02T05:27:10.145Z,22.7
2018-02-02T05:28:09.987Z,22.6
2018-02-02T05:29:09.965Z,22.6
2018-02-02T05:30:09.843Z,22.5
2018-02-02T05:31:09.834Z,22.5
2018-02-02T05:32:09.684Z,22.6
2018-02-02T05:33:09.641Z,22.6
2018-02-02T05:34:09.512Z,22.6
2018-02-02T05:35:09.446Z,22.7
2018-02-02T05:36:09.375Z,22.9
2018-02-02T05:37:09.312Z,22.9
2018-02-02T05:38:09.207Z,22.9
2018-02-02T05:39:09.165Z,22.9
2018-02-02T05:40:09.247Z,23
2018-02-02T05:41:09.140Z,23.1
2018-02-02T05:42:08.961Z,23
2018-02-02T05:43:08.951Z,22.1
2018-02-02T05:44:08.860Z,21
2018-02-02T05:45:08.759Z,20.2
2018-02-02T05:46:08.689Z,19.7
2018-02-02T05:47:08.725Z,19.1
2018-02-02T05:48:08.609Z,18.3
2018-02-02T05:49:08.625Z,17.9
2018-02-02T05:50:08.416Z,17.8
2018-02-02T05:51:08.340Z,17.8
2018-02-02T05:52:08.333Z,17.8
2018-02-02T05:53:08.350Z,17.4
2018-02-02T05:54:08.105Z,17.7
2018-02-02T05:55:08.087Z,18.3
2018-02-02T05:56:08.282Z,19.1
2018-02-02T05:57:07.897Z,19.6
2018-02-02T05:58:07.891Z,20.2
2018-02-02T05:59:07.902Z,20.8
2018-02-02T06:00:07.721Z,21.1
2018-02-02T06:01:07.654Z,21.5
2018-02-02T06:02:07.583Z,21.9
2018-02-02T06:03:07.521Z,22.1
2018-02-02T06:04:07.596Z,22.4
2018-02-02T06:05:07.347Z,22.8
2018-02-02T06:06:07.414Z,23
2018-02-02T06:07:07.349Z,23.3
2018-02-02T06:08:07.277Z,23.5
2018-02-02T06:09:07.109Z,23.5
2018-02-02T06:10:07.065Z,23.7
2018-02-02T06:11:06.952Z,23.9
2018-02-02T06:12:06.898Z,24.1
2018-02-02T06:13:06.860Z,24.2
2018-02-02T06:14:06.730Z,24.1
2018-02-02T06:15:06.724Z,23.9
2018-02-02T06:16:06.685Z,23.9
2018-02-02T06:17:06.841Z,24
2018-02-02T06:18:06.487Z,24.1
2018-02-02T06:19:06.421Z,23.9
2018-02-02T06:20:06.669Z,23.8
2018-02-02T06:21:06.246Z,23.7
2018-02-02T06:22:06.240Z,23.7
2018-02-02T06:23:06.109Z,23.7
2018-02-02T06:24:06.069Z,23.5
2018-02-02T06:25:06.113Z,23.4
2018-02-02T06:26:05.964Z,23.3
2018-02-02T06:27:05.852Z,23.3
2018-02-02T06:28:05.798Z,23.3
2018-02-02T06:29:05.833Z,23.1
2018-02-02T06:30:05.661Z,23
2018-02-02T06:31:05.622Z,23
2018-02-02T06:32:05.491Z,23
2018-02-02T06:33:05.511Z,23
2018-02-02T06:34:05.527Z,22.8
2018-02-02T06:35:05.418Z,22.8
2018-02-02T06:36:05.250Z,22.6
2018-02-02T06:37:05.170Z,22.6
2018-02-02T06:38:05.073Z,22.6
2018-02-02T06:39:05.071Z,22.6
2018-02-02T06:40:04.971Z,22.6
2018-02-02T06:41:04.899Z,22.6
2018-02-02T06:42:04.800Z,22.6
2018-02-02T06:43:04.758Z,22.7
2018-02-02T06:44:04.837Z,22.7
2018-02-02T06:45:04.633Z,22.8
2018-02-02T06:46:04.551Z,22.9
2018-02-02T06:47:04.680Z,22.9
2018-02-02T06:48:04.682Z,22.9
2018-02-02T06:49:04.345Z,23
2018-02-02T06:50:04.275Z,23.1
2018-02-02T06:51:04.212Z,23.1
2018-02-02T06:52:04.284Z,23
2018-02-02T06:53:04.038Z,22.9
2018-02-02T06:54:03.997Z,23
2018-02-02T06:55:03.932Z,23
2018-02-02T06:56:03.895Z,22.9
2018-02-02T06:57:03.759Z,22.8
2018-02-02T06:58:03.758Z,22.8
2018-02-02T06:59:03.735Z,22.7
2018-02-02T07:00:03.692Z,22.7
2018-02-02T07:01:03.812Z,22.8
2018-02-02T07:02:03.445Z,22.8
2018-02-02T07:03:03.348Z,22.8
2018-02-02T07:04:03.339Z,22.6
2018-02-02T07:05:03.298Z,22.6
2018-02-02T07:06:03.200Z,22.6
2018-02-02T07:07:03.104Z,22.6
2018-02-02T07:08:03.001Z,22.7
2018-02-02T07:09:03.114Z,22.8
2018-02-02T07:10:02.897Z,22.8
2018-02-02T07:11:02.829Z,22.8
2018-02-02T07:12:02.761Z,22.8
2018-02-02T07:13:02.686Z,22.8
2018-02-02T07:14:02.674Z,22.8
2018-02-02T07:15:02.661Z,22.8
2018-02-02T07:16:02.801Z,22.8
2018-02-02T07:17:02.420Z,22.7
2018-02-02T07:18:02.394Z,22.7
2018-02-02T07:19:02.391Z,22.6
2018-02-02T07:20:02.307Z,22.6
2018-02-02T07:21:02.108Z,22.6
2018-02-02T07:22:02.104Z,22.7
2018-02-02T07:23:02.006Z,22.7
2018-02-02T07:24:01.988Z,22.8
2018-02-02T07:25:01.894Z,22.9
2018-02-02T07:26:01.904Z,22.9
2018-02-02T07:27:01.751Z,22.9
2018-02-02T07:28:01.652Z,22.9
2018-02-02T07:29:01.580Z,23
2018-02-02T07:30:01.808Z,23.1
2018-02-02T07:31:01.460Z,23
2018-02-02T07:32:01.346Z,23
2018-02-02T07:33:01.339Z,23.1
2018-02-02T07:34:01.300Z,23.1
2018-02-02T07:35:01.168Z,23.1
2018-02-02T07:36:01.102Z,23
2018-02-02T07:37:01.348Z,22.9
2018-02-02T07:38:01.020Z,22.9
2018-02-02T07:39:00.891Z,23
2018-02-02T07:40:00.825Z,23
2018-02-02T07:41:00.754Z,22.9
2018-02-02T07:42:00.720Z,22.9
2018-02-02T07:43:00.584Z,23
2018-02-02T07:44:00.547Z,23
2018-02-02T07:45:00.479Z,23
2018-02-02T07:46:00.466Z,22.9
2018-02-02T07:47:00.333Z,22.9
2018-02-02T07:48:00.302Z,22.9
2018-02-02T07:49:00.555Z,23
2018-02-02T07:50:00.133Z,23
2018-02-02T07:51:00.120Z,22.9
2018-02-02T07:52:00.317Z,22.9
2018-02-02T07:53:00.228Z,22.9
2018-02-02T07:54:00.139Z,23
2018-02-02T07:54:59.785Z,22.9
2018-02-02T07:55:59.964Z,22.9
2018-02-02T07:56:59.681Z,22.9
2018-02-02T07:57:59.727Z,22.9
2018-02-02T07:58:59.477Z,22.9
2018-02-02T07:59:59.439Z,22.9
2018-02-02T08:00:59.371Z,22.9
2018-02-02T08:01:59.407Z,22.9
2018-02-02T08:02:59.252Z,22.9
2018-02-02T08:03:59.130Z,23
2018-02-02T08:04:59.092Z,22.9
2018-02-02T08:05:59.313Z,22.9
2018-02-02T08:06:59.275Z,22.9
2018-02-02T08:07:58.854Z,22.9
2018-02-02T08:08:58.849Z,22.9
2018-02-02T08:09:58.810Z,22.9
2018-02-02T08:10:58.683Z,22.9
2018-02-02T08:11:58.717Z,22.9
2018-02-02T08:12:58.542Z,23
2018-02-02T08:13:58.504Z,23
2018-02-02T08:14:58.371Z,22.9
2018-02-02T08:15:58.368Z,23
2018-02-02T08:16:58.234Z,23.1
2018-02-02T08:17:58.484Z,23.1
2018-02-02T08:18:58.147Z,23.1
2018-02-02T08:19:58.029Z,23.1
2018-02-02T08:20:57.988Z,23.1
2018-02-02T08:21:57.922Z,23.1
2018-02-02T08:22:57.849Z,23.1
2018-02-02T08:23:57.785Z,23.1
2018-02-02T08:24:57.745Z,23.1
2018-02-02T08:25:57.613Z,23.1
2018-02-02T08:26:57.578Z,23.1
2018-02-02T08:27:57.508Z,23.1
2018-02-02T08:28:57.439Z,23.1
2018-02-02T08:29:57.368Z,23.1
2018-02-02T08:30:57.404Z,23.1
2018-02-02T08:31:57.248Z,23.1
2018-02-02T08:32:57.192Z,23.1
2018-02-02T08:33:57.092Z,23.1
2018-02-02T08:34:57.112Z,23.1
2018-02-02T08:35:56.989Z,23.1
2018-02-02T08:36:56.853Z,23.1
2018-02-02T08:37:56.961Z,23.1
2018-02-02T08:38:56.855Z,23.1
2018-02-02T08:39:56.782Z,23.1
2018-02-02T08:40:56.640Z,23.1
2018-02-02T08:41:56.513Z,23.2
2018-02-02T08:42:56.756Z,23.2
2018-02-02T08:43:56.398Z,23.2
2018-02-02T08:44:56.638Z,23.2
2018-02-02T08:45:56.294Z,23.3
2018-02-02T08:46:56.167Z,23.3
2018-02-02T08:47:56.134Z,23.3
2018-02-02T08:48:56.166Z,23.2
2018-02-02T08:49:56.138Z,23.2
2018-02-02T08:50:56.012Z,23.3
2018-02-02T08:51:55.819Z,23.3
2018-02-02T08:52:55.777Z,23.3
2018-02-02T08:53:55.710Z,23.2
2018-02-02T08:54:55.645Z,23.2
2018-02-02T08:55:55.572Z,23.2
2018-02-02T08:56:55.472Z,23.2
2018-02-02T08:57:55.752Z,23.2
2018-02-02T08:58:55.368Z,23.1
2018-02-02T08:59:55.459Z,23.1
2018-02-02T09:00:55.336Z,23.1
2018-02-02T09:01:55.126Z,23.1
2018-02-02T09:02:55.234Z,23.1
2018-02-02T09:03:55.127Z,23.1
2018-02-02T09:04:55.055Z,23.1
2018-02-02T09:05:54.880Z,23.2
2018-02-02T09:06:54.790Z,23.2
2018-02-02T09:07:54.773Z,23.3
2018-02-02T09:08:54.730Z,23.3
2018-02-02T09:09:54.754Z,23.4
2018-02-02T09:10:54.589Z,23.4
2018-02-02T09:11:54.573Z,23.4
2018-02-02T09:12:54.509Z,23.4
2018-02-02T09:13:54.325Z,23.6
2018-02-02T09:14:54.264Z,23.6
2018-02-02T09:15:54.298Z,23.6
2018-02-02T09:16:54.225Z,23.6
2018-02-02T09:17:54.021Z,23.6
2018-02-02T09:18:54.129Z,23.6
2018-02-02T09:19:53.973Z,23.7
2018-02-02T09:20:53.991Z,23.7
2018-02-02T09:21:53.776Z,23.7
2018-02-02T09:22:53.811Z,23.6
2018-02-02T09:23:53.929Z,23.6
2018-02-02T09:24:53.890Z,23.6
2018-02-02T09:25:53.471Z,23.6
2018-02-02T09:26:53.749Z,23.6
2018-02-02T09:27:53.332Z,23.6
2018-02-02T09:28:53.398Z,23.5
2018-02-02T09:29:53.228Z,23.5
2018-02-02T09:30:53.200Z,23.5
2018-02-02T09:31:53.370Z,23.5
2018-02-02T09:32:53.017Z,23.4
2018-02-02T09:33:52.945Z,23.4
2018-02-02T09:34:52.988Z,23.4
2018-02-02T09:35:52.954Z,23.4
2018-02-02T09:36:52.708Z,23.4
2018-02-02T09:37:52.700Z,23.4
2018-02-02T09:38:52.592Z,23.5
2018-02-02T09:39:52.531Z,23.6
2018-02-02T09:40:52.461Z,23.6
2018-02-02T09:41:52.681Z,23.6
2018-02-02T09:42:52.361Z,23.7
2018-02-02T09:43:52.224Z,23.8
2018-02-02T09:44:52.344Z,23.9
2018-02-02T09:45:52.228Z,23.9
2018-02-02T09:46:52.344Z,23.9
2018-02-02T09:47:52.011Z,24
2018-02-02T09:48:51.967Z,24.1
2018-02-02T09:49:51.994Z,24.1
2018-02-02T09:50:51.772Z,24.1
2018-02-02T09:51:51.702Z,24.1
2018-02-02T09:52:51.740Z,24.2
2018-02-02T09:53:51.534Z,24.4
2018-02-02T09:54:51.490Z,24.4
2018-02-02T09:55:51.571Z,24.4
2018-02-02T09:56:51.469Z,24.4
2018-02-02T09:57:51.391Z,24.4
2018-02-02T09:58:51.277Z,24.5
2018-02-02T09:59:51.182Z,24.5
2018-02-02T10:00:51.080Z,24.6
2018-02-02T10:01:51.016Z,24.6
2018-02-02T10:02:50.942Z,24.6
2018-02-02T10:03:50.933Z,24.6
2018-02-02T10:04:50.951Z,24.6
2018-02-02T10:05:50.791Z,24.6
2018-02-02T10:06:50.698Z,24.7
2018-02-02T10:07:50.599Z,24.8
2018-02-02T10:08:50.525Z,24.7
2018-02-02T10:09:50.461Z,24.8
2018-02-02T10:10:50.365Z,24.8
2018-02-02T10:11:50.352Z,24.8
2018-02-02T10:12:50.359Z,24.8
2018-02-02T10:13:50.286Z,24.8
2018-02-02T10:14:50.171Z,24.8
2018-02-02T10:15:50.079Z,24.8
2018-02-02T10:16:50.032Z,24.8
2018-02-02T10:17:49.936Z,24.8
2018-02-02T10:18:49.945Z,24.8
2018-02-02T10:19:49.769Z,24.7
2018-02-02T10:20:49.695Z,24.8
2018-02-02T10:21:49.660Z,24.8
2018-02-02T10:22:49.600Z,24.8
2018-02-02T10:23:49.522Z,24.7
2018-02-02T10:24:49.388Z,24.7
2018-02-02T10:25:49.461Z,24.7
2018-02-02T10:26:49.405Z,24.7
2018-02-02T10:27:49.272Z,24.7
2018-02-02T10:28:49.253Z,24.7
2018-02-02T10:29:49.076Z,24.7
2018-02-02T10:30:49.111Z,24.8
2018-02-02T10:31:48.940Z,24.8
2018-02-02T10:32:48.898Z,24.8
2018-02-02T10:33:48.769Z,24.8
2018-02-02T10:34:48.728Z,24.8
2018-02-02T10:35:48.627Z,24.6
2018-02-02T10:36:48.622Z,24.3
2018-02-02T10:37:48.493Z,24.1
2018-02-02T10:38:48.485Z,24.1
2018-02-02T10:39:48.385Z,24.1
2018-02-02T10:40:48.312Z,23.9
2018-02-02T10:41:48.214Z,23.5
2018-02-02T10:42:48.308Z,23.3
2018-02-02T10:43:48.212Z,23.3
2018-02-02T10:44:48.039Z,23.3
2018-02-02T10:45:47.967Z,23.2
2018-02-02T10:46:47.869Z,23.1
2018-02-02T10:47:47.980Z,23.1
2018-02-02T10:48:47.793Z,23.1
2018-02-02T10:49:47.662Z,23.1
2018-02-02T10:50:47.624Z,23.2
2018-02-02T10:51:47.558Z,23.3
2018-02-02T10:52:47.486Z,23.4
2018-02-02T10:53:47.567Z,23.4
2018-02-02T10:54:47.628Z,23.6
2018-02-02T10:55:47.384Z,23.6
2018-02-02T10:56:47.220Z,23.8
2018-02-02T10:57:47.176Z,23.8
2018-02-02T10:58:47.075Z,23.9
2018-02-02T10:59:46.973Z,24
2018-02-02T11:00:47.035Z,24.1
2018-02-02T11:01:46.868Z,24.1
2018-02-02T11:02:46.791Z,24.2
2018-02-02T11:03:46.727Z,24.3
2018-02-02T11:04:46.689Z,24.3
2018-02-02T11:05:46.562Z,24.3
2018-02-02T11:06:46.633Z,24.3
2018-02-02T11:07:46.448Z,24.3
2018-02-02T11:08:46.539Z,24.3
2018-02-02T11:09:46.464Z,24.3
2018-02-02T11:10:46.241Z,24.4
2018-02-02T11:11:46.278Z,24.4
2018-02-02T11:12:46.106Z,24.4
2018-02-02T11:13:46.031Z,24.4
2018-02-02T11:14:46.270Z,24.4
2018-02-02T11:15:45.866Z,24.4
2018-02-02T11:17:45.785Z,24.4
2018-02-02T11:18:45.675Z,24.4
2018-02-02T11:19:45.590Z,24.3
2018-02-02T11:20:45.517Z,24.3
2018-02-02T11:21:45.540Z,24.3
2018-02-02T11:22:45.363Z,24.3
2018-02-02T11:23:45.395Z,24.3
2018-02-02T11:24:45.306Z,24.3
2018-02-02T11:25:45.182Z,24.3
2018-02-02T11:26:45.081Z,24.2
2018-02-02T11:27:44.934Z,24.2
2018-02-02T11:28:44.922Z,24.2
2018-02-02T11:29:44.808Z,24.2
2018-02-02T11:30:44.853Z,24.2
2018-02-02T11:31:44.710Z,24.2
2018-02-02T11:32:44.574Z,24.3
2018-02-02T11:33:44.497Z,24.2
2018-02-02T11:34:44.466Z,24.3
2018-02-02T11:35:44.339Z,24.3
2018-02-02T11:36:44.599Z,24.3
2018-02-02T11:37:44.156Z,24.3
2018-02-02T11:38:44.103Z,24.3
2018-02-02T11:39:44.061Z,24.3
2018-02-02T11:40:43.916Z,24.4
2018-02-02T11:41:44.021Z,24.4
2018-02-02T11:42:43.758Z,24.4
2018-02-02T11:43:43.711Z,24.4
2018-02-02T11:44:43.685Z,24.4
2018-02-02T11:46:43.749Z,24.4
2018-02-02T11:47:43.544Z,24.4
2018-02-02T11:48:43.379Z,24.4
2018-02-02T11:49:43.387Z,24.4
2018-02-02T11:50:43.270Z,24.4
2018-02-02T11:51:43.086Z,24.4
2018-02-02T11:52:42.972Z,24.4
2018-02-02T11:53:42.957Z,24.4
2018-02-02T11:54:42.956Z,24.4
2018-02-02T11:55:42.879Z,24.5
2018-02-02T11:56:42.795Z,24.5
2018-02-02T11:57:42.581Z,24.6
2018-02-02T11:58:42.567Z,24.6
2018-02-02T11:59:42.425Z,24.7
2018-02-02T12:00:42.528Z,24.7
2018-02-02T12:01:42.407Z,24.8
2018-02-02T12:02:42.330Z,24.8
2018-02-02T12:03:42.249Z,24.8
2018-02-02T12:04:42.122Z,24.8
2018-02-02T12:05:42.017Z,24.8
2018-02-02T12:06:41.907Z,24.8
2018-02-02T12:07:41.828Z,24.8
2018-02-02T12:08:41.718Z,24.8
2018-02-02T12:09:41.704Z,24.8
2018-02-02T12:10:41.599Z,24.8
2018-02-02T12:11:41.516Z,24.7
2018-02-02T12:12:41.437Z,24.7
2018-02-02T12:13:41.359Z,24.8
2018-02-02T12:14:41.287Z,24.8
2018-02-02T12:15:41.233Z,24.8
2018-02-02T12:16:41.096Z,24.8
2018-02-02T12:17:41.078Z,24.8
2018-02-02T12:18:40.953Z,24.8
2018-02-02T12:19:40.997Z,24.8
2018-02-02T12:20:41.007Z,24.8
2018-02-02T12:21:40.700Z,24.8
2018-02-02T12:22:40.939Z,24.8
2018-02-02T12:23:40.576Z,24.8
2018-02-02T12:24:40.600Z,24.8
2018-02-02T12:25:40.417Z,24.8
2018-02-02T12:26:40.345Z,24.9
2018-02-02T12:27:40.263Z,24.9
2018-02-02T12:28:40.181Z,24.9
2018-02-02T12:29:40.162Z,24.9
2018-02-02T12:30:40.173Z,24.9
2018-02-02T12:31:40.008Z,24.9
2018-02-02T12:32:40.165Z,24.9
2018-02-02T12:33:39.793Z,24.9
2018-02-02T12:34:39.704Z,24.9
2018-02-02T12:35:39.780Z,24.9
2018-02-02T12:36:39.556Z,24.9
2018-02-02T12:37:39.475Z,24.9
2018-02-02T12:38:39.510Z,24.9
2018-02-02T12:39:39.318Z,24.8
2018-02-02T12:40:39.210Z,24.8
2018-02-02T12:41:39.313Z,24.8
2018-02-02T12:42:39.080Z,24.8
2018-02-02T12:43:39.113Z,24.7
2018-02-02T12:44:39.038Z,24.6
2018-02-02T12:45:38.954Z,24.6
2018-02-02T12:46:38.772Z,24.6
2018-02-02T12:47:39.069Z,24.6
2018-02-02T12:48:38.583Z,24.5
2018-02-02T12:49:38.644Z,24.5
2018-02-02T12:50:38.473Z,24.4
2018-02-02T12:51:38.351Z,24.4
2018-02-02T12:52:38.447Z,24.4
2018-02-02T12:53:38.189Z,24.3
2018-02-02T12:54:38.141Z,24.3
2018-02-02T12:55:38.066Z,24.3
2018-02-02T12:56:38.093Z,24.3
2018-02-02T12:57:38.018Z,24.3
2018-02-02T12:58:37.831Z,24.4
2018-02-02T12:59:37.897Z,24.4
2018-02-02T13:00:37.734Z,24.4
2018-02-02T13:01:37.592Z,24.4
2018-02-02T13:02:37.518Z,24.5
2018-02-02T13:03:37.468Z,24.5
2018-02-02T13:04:37.417Z,24.5
2018-02-02T13:05:37.278Z,24.5
2018-02-02T13:06:37.201Z,24.5
2018-02-02T13:07:37.125Z,24.4
2018-02-02T13:08:37.192Z,24.4
2018-02-02T13:09:36.935Z,24.4
2018-02-02T13:10:36.857Z,24.4
2018-02-02T13:11:36.848Z,24.4
2018-02-02T13:12:36.738Z,24.5
2018-02-02T13:13:36.759Z,24.6
2018-02-02T13:14:36.684Z,24.5
2018-02-02T13:15:36.465Z,24.5
2018-02-02T13:16:36.565Z,24.5
2018-02-02T13:17:36.345Z,24.5
2018-02-02T13:18:36.372Z,24.4
2018-02-02T13:19:36.244Z,24.3
2018-02-02T13:20:36.254Z,24.3
2018-02-02T13:21:36.084Z,24.2
2018-02-02T13:22:35.965Z,24.2
2018-02-02T13:23:36.154Z,24.2
2018-02-02T13:24:35.853Z,24.2